Time;durP1;ratioP1;P1;durP2;ratioP2;P2;SDS_P1;SDS_P2;PMS_P1;PMS_P2;Temp;Humidity;BMP_temperature;BMP_pressure;BME280_temperature;BME280_humidity;BME280_pressure;Samples;Min_cycle;Max_cycle;Signal;HPM_P1;HPM_P2
2020/12/31 00:05:56;;;;;;;1999.90;999.90;;;;;;;4.74;71.91;99997.00;15871634;28;20070;-59
2020/12/31 00:13:28;;;;;;;;;;;;;;;4.90;71.93;100003.84;15871118;28;20143;-58
2020/12/31 00:21:02;;;;;;;1999.90;999.90;;;;;;;4.72;71.65;100013.91;15871546;28;19923;-60
2020/12/31 00:28:35;;;;;;;1999.90;999.90;;;;;;;4.73;71.52;100018.31;15871412;28;20075;-57
2020/12/31 00:36:08;;;;;;;1999.90;999.90;;;;;;;4.73;72.19;100025.78;15876260;28;20043;-60
2020/12/31 00:43:41;;;;;;;1999.90;999.90;;;;;;;4.68;71.92;100020.34;15869384;28;20060;-59
2020/12/31 00:51:15;;;;;;;1999.90;999.90;;;;;;;4.69;72.02;100030.28;15850449;28;20050;-54
2020/12/31 00:58:48;;;;;;;1999.90;999.90;;;;;;;4.78;71.84;100025.66;15847984;28;20297;-56
2020/12/31 01:06:22;;;;;;;1999.90;999.90;;;;;;;4.82;71.83;100038.56;15849164;28;20476;-56
2020/12/31 01:13:55;;;;;;;1999.90;999.90;;;;;;;4.75;71.85;100040.09;15849330;28;20320;-57
2020/12/31 01:21:28;;;;;;;1999.90;999.90;;;;;;;4.62;72.60;100050.06;15848897;28;20480;-57
2020/12/31 01:29:02;;;;;;;1999.90;999.90;;;;;;;4.66;72.46;100055.78;15847889;28;20048;-57
2020/12/31 01:36:35;;;;;;;1999.90;999.90;;;;;;;4.74;72.73;100050.34;15866021;28;20043;-55
2020/12/31 01:44:11;;;;;;;1999.90;999.90;;;;;;;4.59;72.50;100047.94;15847225;28;20325;-58
2020/12/31 01:51:47;;;;;;;1999.90;999.90;;;;;;;4.75;72.31;100059.44;15865082;28;20044;-57
2020/12/31 01:59:20;;;;;;;1999.90;999.90;;;;;;;4.71;71.93;100066.72;15846673;28;20062;-57
2020/12/31 02:06:54;;;;;;;1999.90;999.90;;;;;;;4.59;72.63;100070.03;15864536;28;20040;-59
2020/12/31 02:14:27;;;;;;;1999.90;999.90;;;;;;;4.51;72.99;100070.75;15864098;28;20063;-59
2020/12/31 02:22:00;;;;;;;1999.90;999.90;;;;;;;4.55;72.55;100072.56;15864268;28;20047;-59
2020/12/31 02:29:33;;;;;;;1999.90;999.90;;;;;;;4.65;72.58;100077.06;15863696;28;20058;-57
2020/12/31 02:37:06;;;;;;;1999.90;999.90;;;;;;;4.50;72.41;100072.69;15863502;28;20074;-58
2020/12/31 02:44:39;;;;;;;1999.90;999.90;;;;;;;4.39;72.85;100071.28;15863272;28;20044;-59
2020/12/31 02:52:13;;;;;;;1999.90;999.90;;;;;;;4.35;73.23;100076.56;15844282;28;20404;-58
2020/12/31 02:59:46;;;;;;;1999.90;999.90;;;;;;;4.36;73.03;100077.38;15862615;28;20073;-60
2020/12/31 03:07:19;;;;;;;1999.90;999.90;;;;;;;4.36;72.86;100091.19;15862324;28;20039;-60
2020/12/31 03:14:52;;;;;;;1999.90;999.90;;;;;;;4.31;73.45;100089.38;15861892;28;20082;-57
2020/12/31 03:22:25;;;;;;;1999.90;999.90;;;;;;;4.27;73.30;100077.31;15861675;28;20126;-58
2020/12/31 03:29:58;;;;;;;1999.90;999.90;;;;;;;4.68;72.27;100090.25;15860896;28;20043;-59
2020/12/31 03:37:31;;;;;;;1999.90;999.90;;;;;;;4.48;73.27;100088.75;15861200;28;20512;-59
2020/12/31 03:45:04;;;;;;;1999.90;999.90;;;;;;;4.48;73.47;100088.75;15861134;28;20066;-60
2020/12/31 03:52:38;;;;;;;1999.90;999.90;;;;;;;4.64;72.78;100083.72;15823876;28;20113;-58
2020/12/31 04:00:10;;;;;;;1999.90;999.90;;;;;;;4.54;72.97;100095.00;15842043;28;20508;-57
2020/12/31 04:07:44;;;;;;;1999.90;999.90;;;;;;;4.68;72.78;100093.03;15867237;28;20066;-59
2020/12/31 04:15:17;;;;;;;1999.90;999.90;;;;;;;4.71;72.91;100086.09;15871170;28;20476;-60
2020/12/31 04:22:50;;;;;;;1999.90;999.90;;;;;;;4.61;73.78;100087.13;15870508;28;20127;-57
2020/12/31 04:30:23;;;;;;;1999.90;999.90;;;;;;;4.71;73.59;100083.31;15835105;28;20418;-58
2020/12/31 04:37:57;;;;;;;1999.90;999.90;;;;;;;4.62;73.55;100094.28;15869515;28;20400;-57
2020/12/31 04:45:30;;;;;;;1999.90;999.90;;;;;;;4.55;74.01;100091.91;15868512;28;20503;-59
2020/12/31 04:53:05;;;;;;;1999.90;999.90;;;;;;;4.62;73.03;100095.09;15867892;28;20477;-57
2020/12/31 05:00:38;;;;;;;1999.90;999.90;;;;;;;4.55;73.31;100100.19;15867559;28;20522;-61
2020/12/31 05:08:17;;;;;;;1999.90;999.90;;;;;;;4.58;73.02;100107.88;15866544;28;20043;-59
2020/12/31 05:15:49;;;;;;;1999.90;999.90;;;;;;;4.55;72.39;100105.72;15865522;28;20117;-59
2020/12/31 05:23:25;;;;;;;1999.90;999.90;;;;;;;4.49;72.78;100111.69;15865661;28;20055;-58
2020/12/31 05:31:00;;;;;;;1999.90;999.90;;;;;;;4.21;72.96;100125.47;15865541;28;20361;-60
2020/12/31 05:38:34;;;;;;;1999.90;999.90;;;;;;;4.13;72.87;100122.59;15865020;28;20419;-59
2020/12/31 05:46:09;;;;;;;1999.90;999.90;;;;;;;4.12;71.84;100127.28;15846561;28;20035;-58
2020/12/31 05:53:47;;;;;;;1999.90;999.90;;;;;;;3.95;72.58;100127.03;15864741;28;20386;-60
2020/12/31 06:01:20;;;;;;;1999.90;999.90;;;;;;;3.74;72.84;100135.69;15863704;28;20370;-58
2020/12/31 06:09:04;;;;;;;1999.90;999.90;;;;;;;3.83;72.61;100138.56;15863389;28;20067;-59
2020/12/31 06:16:39;;;;;;;1999.90;999.90;;;;;;;3.69;72.46;100148.75;15828378;28;20044;-59
2020/12/31 06:24:13;;;;;;;1999.90;999.90;;;;;;;3.48;72.56;100140.81;15862892;28;20043;-60
2020/12/31 06:31:50;;;;;;;;;;;;;;;3.46;72.83;100151.31;15861827;28;20047;-60
2020/12/31 06:39:24;;;;;;;1999.90;999.90;;;;;;;3.29;72.99;100153.78;15861866;28;20257;-58
2020/12/31 06:46:57;;;;;;;1999.90;999.90;;;;;;;3.15;73.68;100164.72;15862252;28;20113;-55
2020/12/31 06:54:30;;;;;;;1999.90;999.90;;;;;;;3.25;73.26;100185.00;15861347;28;20050;-58
2020/12/31 07:02:20;;;;;;;1999.90;999.90;;;;;;;3.28;73.04;100171.44;15843550;28;20088;-57
2020/12/31 07:09:55;;;;;;;1999.90;999.90;;;;;;;3.14;72.99;100178.81;15860953;28;20127;-58
2020/12/31 07:17:34;;;;;;;1999.90;999.90;;;;;;;2.81;73.91;100172.34;15842202;28;20126;-59
2020/12/31 07:25:11;;;;;;;1999.90;999.90;;;;;;;2.97;73.88;100167.47;15842047;28;20483;-58
2020/12/31 07:32:58;;;;;;;1999.90;999.90;;;;;;;3.23;72.43;100187.22;15842183;28;20354;-60
2020/12/31 07:40:35;;;;;;;1999.90;999.90;;;;;;;3.46;72.33;100184.41;15847088;28;20047;-59
2020/12/31 07:48:07;;;;;;;1999.90;999.90;;;;;;;3.62;71.73;100193.28;15872646;28;20050;-58
2020/12/31 07:55:47;;;;;;;;;;;;;;;3.67;71.76;100192.38;15872465;28;20512;-57
2020/12/31 08:03:23;;;;;;;1999.90;999.90;;;;;;;3.68;72.04;100194.84;15836035;28;19926;-56
2020/12/31 08:10:57;;;;;;;1999.90;999.90;;;;;;;3.71;72.66;100204.44;15870920;28;20443;-58
2020/12/31 08:18:30;;;;;;;1999.90;999.90;;;;;;;3.76;72.18;100209.91;15851901;28;20394;-60
2020/12/31 08:26:08;;;;;;;1999.90;999.90;;;;;;;3.70;72.81;100206.41;15869735;28;20042;-57
2020/12/31 08:33:42;;;;;;;1999.90;999.90;;;;;;;3.95;71.94;100205.16;15851085;28;20051;-58
2020/12/31 08:41:20;;;;;;;1999.90;999.90;;;;;;;3.99;72.06;100205.38;15850520;28;20096;-59
2020/12/31 08:48:55;;;;;;;1999.90;999.90;;;;;;;4.19;71.00;100209.75;15868223;28;20059;-56
2020/12/31 08:56:29;;;;;;;1999.90;999.90;;;;;;;4.26;70.95;100212.91;15867748;28;20040;-55
2020/12/31 09:04:06;;;;;;;1999.90;999.90;;;;;;;4.42;70.78;100208.78;15868476;28;20121;-57
2020/12/31 09:11:52;;;;;;;1999.90;999.90;;;;;;;4.56;70.97;100217.88;15850268;28;20068;-58
2020/12/31 09:19:26;;;;;;;1999.90;999.90;;;;;;;4.75;69.37;100206.75;15867265;28;20126;-59
2020/12/31 09:27:00;;;;;;;1999.90;999.90;;;;;;;4.86;68.63;100207.38;15848608;28;20043;-56
2020/12/31 09:34:33;;;;;;;1999.90;999.90;;;;;;;5.10;68.03;100215.44;15869732;28;20150;-60
2020/12/31 09:42:07;;;;;;;1999.90;999.90;;;;;;;5.06;68.44;100219.97;15868039;28;20456;-60
2020/12/31 09:49:39;;;;;;;1999.90;999.90;;;;;;;5.18;68.21;100210.00;15868358;28;20048;-60
2020/12/31 09:57:13;;;;;;;1999.90;999.90;;;;;;;5.25;67.73;100214.31;15863614;28;20078;-59
2020/12/31 10:04:45;;;;;;;1999.90;999.90;;;;;;;5.37;67.05;100204.34;15846866;28;20513;-61
2020/12/31 10:12:19;;;;;;;1999.90;999.90;;;;;;;5.47;67.06;100195.81;15864162;28;20104;-60
2020/12/31 10:19:56;;;;;;;1999.90;999.90;;;;;;;5.47;66.50;100197.78;15828753;28;20047;-60
2020/12/31 10:27:29;;;;;;;1999.90;999.90;;;;;;;5.90;65.99;100195.38;15845011;28;20112;-60
2020/12/31 10:35:03;;;;;;;1999.90;999.90;;;;;;;5.78;66.05;100189.56;15862988;28;20525;-59
2020/12/31 10:42:36;;;;;;;1999.90;999.90;;;;;;;5.73;65.02;100165.59;15863284;28;20481;-61
2020/12/31 10:50:09;;;;;;;1999.90;999.90;;;;;;;7.51;61.14;100163.44;15862483;28;20420;-60
2020/12/31 10:57:43;;;;;;;1999.90;999.90;;;;;;;8.15;58.39;100154.38;15862282;28;20084;-61
2020/12/31 11:05:15;;;;;;;1999.90;999.90;;;;;;;8.29;57.61;100143.88;15861852;28;20044;-60
2020/12/31 11:12:49;;;;;;;1999.90;999.90;;;;;;;8.22;57.35;100139.97;15844766;28;20043;-61
2020/12/31 11:20:22;;;;;;;1999.90;999.90;;;;;;;8.64;55.13;100129.84;15874700;28;20095;-59
2020/12/31 11:27:55;;;;;;;1999.90;999.90;;;;;;;9.46;53.34;100128.38;15874702;28;20138;-61
2020/12/31 11:35:28;;;;;;;1999.90;999.90;;;;;;;9.16;54.30;100124.00;15874098;28;20047;-60
2020/12/31 11:43:02;;;;;;;1999.90;999.90;;;;;;;9.19;54.23;100110.25;15874622;28;20032;-60
2020/12/31 11:50:35;;;;;;;1999.90;999.90;;;;;;;7.39;57.52;100106.91;15873262;28;20529;-58
2020/12/31 11:58:08;;;;;;;1999.90;999.90;;;;;;;8.05;58.13;100110.28;15872543;28;20055;-60
2020/12/31 12:05:41;;;;;;;1999.90;999.90;;;;;;;8.00;56.76;100107.66;15872846;28;20118;-60
2020/12/31 12:13:15;;;;;;;1999.90;999.90;;;;;;;8.66;54.91;100110.91;15872292;28;20392;-60
2020/12/31 12:20:50;;;;;;;1999.90;999.90;;;;;;;9.58;53.13;100110.09;15871861;28;20131;-60
2020/12/31 12:28:23;;;;;;;1999.90;999.90;;;;;;;8.70;54.17;100108.25;15870170;28;20112;-61
2020/12/31 12:35:56;;;;;;;1999.90;999.90;;;;;;;8.53;55.30;100100.78;15869939;28;20046;-61
2020/12/31 12:43:30;;;;;;;1999.90;999.90;;;;;;;10.62;50.12;100104.22;15870114;28;20035;-60
2020/12/31 12:51:03;;;;;;;1999.90;999.90;;;;;;;13.98;42.00;100112.81;15868782;28;20063;-60
2020/12/31 12:58:36;;;;;;;1999.90;999.90;;;;;;;16.28;37.21;100116.75;15850110;28;20031;-57
2020/12/31 13:06:10;;;;;;;1999.90;999.90;;;;;;;10.75;47.90;100113.44;15868514;28;20093;-60
2020/12/31 13:13:44;;;;;;;1999.90;999.90;;;;;;;9.39;50.96;100114.19;15850806;28;20032;-60
2020/12/31 13:21:19;;;;;;;1999.90;999.90;;;;;;;9.39;51.58;100118.94;15868199;28;20126;-58
2020/12/31 13:28:53;;;;;;;1999.90;999.90;;;;;;;10.60;48.84;100114.94;15866455;28;20047;-59
2020/12/31 13:36:27;;;;;;;1999.90;999.90;;;;;;;9.76;50.32;100098.44;15866551;28;20137;-59
2020/12/31 13:44:00;;;;;;;1999.90;999.90;;;;;;;8.42;53.71;100107.88;15866715;28;20043;-59
2020/12/31 13:51:33;;;;;;;1999.90;999.90;;;;;;;7.80;55.99;100103.59;15865337;28;20147;-58
2020/12/31 13:59:08;;;;;;;1999.90;999.90;;;;;;;7.75;56.05;100109.34;15864776;28;20523;-59
2020/12/31 14:06:41;;;;;;;1999.90;999.90;;;;;;;7.60;56.70;100105.09;15864291;28;20039;-60
2020/12/31 14:14:15;;;;;;;1999.90;999.90;;;;;;;7.33;57.77;100109.03;15863724;28;20050;-59
2020/12/31 14:21:48;;;;;;;1999.90;999.90;;;;;;;7.30;58.25;100114.44;15863847;28;20184;-59
2020/12/31 14:29:21;;;;;;;1999.90;999.90;;;;;;;7.05;58.70;100110.47;15863920;28;20051;-58
2020/12/31 14:36:54;;;;;;;1999.90;999.90;;;;;;;7.12;58.67;100119.97;15864254;28;20039;-58
2020/12/31 14:44:28;;;;;;;1999.90;999.90;;;;;;;6.68;59.77;100114.66;15863154;28;20302;-59
2020/12/31 14:52:04;;;;;;;1999.90;999.90;;;;;;;6.83;59.35;100114.19;15843740;28;20047;-61
2020/12/31 14:59:38;;;;;;;1999.90;999.90;;;;;;;6.56;59.94;100115.22;15861936;28;20054;-60
2020/12/31 15:07:10;;;;;;;1999.90;999.90;;;;;;;6.46;59.92;100118.28;15861881;28;20190;-59
2020/12/31 15:14:45;;;;;;;1999.90;999.90;;;;;;;6.55;60.00;100114.41;15860880;28;20048;-58
2020/12/31 15:22:18;;;;;;;1999.90;999.90;;;;;;;6.35;60.29;100126.88;15861664;28;20039;-58
2020/12/31 15:29:51;;;;;;;1999.90;999.90;;;;;;;6.22;60.55;100124.22;15861331;28;20119;-59
2020/12/31 15:37:24;;;;;;;1999.90;999.90;;;;;;;6.06;61.50;100123.81;15860381;28;20101;-58
2020/12/31 15:44:58;;;;;;;1999.90;999.90;;;;;;;5.93;61.99;100119.97;15860995;28;20369;-55
2020/12/31 15:52:30;;;;;;;1999.90;999.90;;;;;;;6.02;61.64;100125.56;15824634;28;20071;-56
2020/12/31 16:00:06;;;;;;;1999.90;999.90;;;;;;;5.93;61.80;100119.16;15861342;28;20522;-57
2020/12/31 16:07:45;;;;;;;1999.90;999.90;;;;;;;5.71;62.05;100120.78;15871695;28;20217;-59
2020/12/31 16:15:19;;;;;;;1999.90;999.90;;;;;;;5.77;62.14;100118.72;15852286;28;20043;-58
2020/12/31 16:22:52;;;;;;;;;;;;;;;5.58;62.79;100109.78;15871091;28;20122;-60
2020/12/31 16:30:25;;;;;;;1999.90;999.90;;;;;;;5.61;62.22;100107.19;15851487;28;19966;-61
2020/12/31 16:37:58;;;;;;;1999.90;999.90;;;;;;;5.74;62.07;100106.34;15851459;28;20514;-60
2020/12/31 16:45:31;;;;;;;1999.90;999.90;;;;;;;5.69;61.57;100108.41;15870063;28;20055;-59
2020/12/31 16:53:04;;;;;;;1999.90;999.90;;;;;;;5.56;62.32;100109.28;15869217;28;20162;-55
2020/12/31 17:00:38;;;;;;;1999.90;999.90;;;;;;;5.09;63.68;100100.41;15867977;28;20448;-59
2020/12/31 17:08:11;;;;;;;1999.90;999.90;;;;;;;5.12;64.04;100105.34;15868309;28;20043;-58
2020/12/31 17:15:44;;;;;;;1999.90;999.90;;;;;;;5.18;63.87;100101.31;15867778;28;20099;-58
2020/12/31 17:23:17;;;;;;;1999.90;999.90;;;;;;;5.15;64.07;100100.00;15868011;28;20051;-55
2020/12/31 17:30:50;;;;;;;1999.90;999.90;;;;;;;5.02;64.15;100091.75;15867750;28;20051;-56
2020/12/31 17:38:23;;;;;;;1999.90;999.90;;;;;;;4.84;64.93;100094.34;15867216;28;20071;-54
2020/12/31 17:45:56;;;;;;;1999.90;999.90;;;;;;;4.93;64.88;100081.44;15848798;28;20054;-54
2020/12/31 17:53:29;;;;;;;1999.90;999.90;;;;;;;4.83;65.11;100092.72;15847071;28;20046;-55
2020/12/31 18:01:03;;;;;;;1999.90;999.90;;;;;;;5.07;64.18;100092.44;15846714;28;20133;-57
2020/12/31 18:08:36;;;;;;;1999.90;999.90;;;;;;;5.21;63.03;100093.25;15846114;28;20493;-59
2020/12/31 18:16:10;;;;;;;1999.90;999.90;;;;;;;5.18;63.16;100093.03;15845225;28;20122;-57
2020/12/31 18:23:43;;;;;;;1999.90;999.90;;;;;;;5.05;63.35;100100.25;15862948;28;20047;-61
2020/12/31 18:31:19;;;;;;;1999.90;999.90;;;;;;;4.98;63.67;100102.59;15845772;28;20048;-60
2020/12/31 18:38:53;;;;;;;1999.90;999.90;;;;;;;5.09;62.54;100100.41;15863310;28;20047;-59
2020/12/31 18:46:26;;;;;;;1999.90;999.90;;;;;;;5.08;63.30;100101.56;15862941;28;20035;-60
2020/12/31 18:53:59;;;;;;;1999.90;999.90;;;;;;;4.90;63.39;100106.94;15862401;28;20297;-60
2020/12/31 19:01:39;;;;;;;1999.90;999.90;;;;;;;4.87;63.63;100112.25;15843131;28;20430;-60
2020/12/31 19:09:12;;;;;;;1999.90;999.90;;;;;;;4.96;62.74;100104.03;15844323;28;20104;-59
2020/12/31 19:16:47;;;;;;;1999.90;999.90;;;;;;;5.11;62.38;100109.25;15862854;28;20044;-58
2020/12/31 19:24:19;;;;;;;;;;;;;;;5.03;62.53;100123.81;15863259;28;20068;-59
2020/12/31 19:31:53;;;;;;;1999.90;999.90;;;;;;;4.86;62.81;100128.03;15843494;28;19959;-59
2020/12/31 19:39:26;;;;;;;1999.90;999.90;;;;;;;5.02;62.44;100125.75;15871676;28;20046;-59
2020/12/31 19:47:01;;;;;;;1999.90;999.90;;;;;;;4.90;62.71;100129.06;15874160;28;20043;-60
2020/12/31 19:54:34;;;;;;;1999.90;999.90;;;;;;;4.97;62.40;100138.84;15872943;28;20036;-59
2020/12/31 20:02:08;;;;;;;1999.90;999.90;;;;;;;4.91;62.34;100132.63;15872095;28;20365;-60
2020/12/31 20:09:42;;;;;;;1999.90;999.90;;;;;;;4.77;63.32;100140.09;15852808;28;20500;-58
2020/12/31 20:17:16;;;;;;;1999.90;999.90;;;;;;;4.74;63.34;100137.97;15870414;28;20043;-58
2020/12/31 20:24:49;;;;;;;1999.90;999.90;;;;;;;4.64;62.87;100133.47;15869921;28;20047;-57
2020/12/31 20:32:23;;;;;;;1999.90;999.90;;;;;;;4.50;63.38;100146.47;15869467;28;20425;-60
2020/12/31 20:39:58;;;;;;;;;;;;;;;4.71;63.76;100144.13;15870975;28;20411;-58
2020/12/31 20:47:32;;;;;;;1999.90;999.90;;;;;;;4.76;64.51;100128.22;15868544;28;19983;-59
2020/12/31 20:55:05;;;;;;;;;;;;;;;4.77;64.98;100127.09;15850816;28;20036;-60
2020/12/31 21:02:38;;;;;;;1999.90;999.90;;;;;;;4.45;66.57;100125.28;15867771;28;20018;-59
2020/12/31 21:10:12;;;;;;;1999.90;999.90;;;;;;;4.51;66.34;100140.63;15868691;28;20079;-58
2020/12/31 21:17:45;;;;;;;1999.90;999.90;;;;;;;4.49;66.97;100131.84;15868050;28;20039;-60
2020/12/31 21:25:18;;;;;;;1999.90;999.90;;;;;;;4.78;66.48;100141.75;15832987;28;20108;-59
2020/12/31 21:32:52;;;;;;;1999.90;999.90;;;;;;;4.67;67.47;100134.78;15832372;28;20051;-59
2020/12/31 21:40:24;;;;;;;1999.90;999.90;;;;;;;4.67;68.16;100138.38;15865647;28;20329;-59
2020/12/31 21:47:58;;;;;;;1999.90;999.90;;;;;;;4.70;68.18;100125.91;15865419;28;20170;-60
2020/12/31 21:55:31;;;;;;;1999.90;999.90;;;;;;;4.59;68.43;100133.59;15864799;28;20048;-60
2020/12/31 22:03:04;;;;;;;1999.90;999.90;;;;;;;4.70;68.18;100126.72;15863978;28;20071;-59
2020/12/31 22:10:37;;;;;;;1999.90;999.90;;;;;;;4.88;67.92;100130.47;15846785;28;20046;-60
2020/12/31 22:18:11;;;;;;;1999.90;999.90;;;;;;;4.84;68.30;100121.16;15864164;28;20210;-61
2020/12/31 22:25:45;;;;;;;1999.90;999.90;;;;;;;4.81;68.17;100110.75;15863515;28;20120;-59
2020/12/31 22:33:18;;;;;;;1999.90;999.90;;;;;;;4.81;68.35;100110.75;15863167;28;20035;-61
2020/12/31 22:40:52;;;;;;;1999.90;999.90;;;;;;;4.76;68.17;100102.53;15845877;28;20135;-61
2020/12/31 22:48:26;;;;;;;1999.90;999.90;;;;;;;4.71;68.09;100094.38;15863270;28;20122;-61
2020/12/31 22:55:59;;;;;;;1999.90;999.90;;;;;;;4.81;67.67;100094.16;15862050;28;20142;-59
2020/12/31 23:03:32;;;;;;;1999.90;999.90;;;;;;;5.01;67.66;100079.88;15861653;28;20127;-59
2020/12/31 23:11:05;;;;;;;1999.90;999.90;;;;;;;4.88;67.24;100077.94;15848523;28;20042;-60
2020/12/31 23:18:39;;;;;;;1999.90;999.90;;;;;;;4.93;68.00;100073.13;15855653;28;20067;-61
2020/12/31 23:26:16;;;;;;;1999.90;999.90;;;;;;;5.01;68.04;100081.81;15874102;28;20500;-61
2020/12/31 23:33:51;;;;;;;1999.90;999.90;;;;;;;4.97;67.52;100075.25;15855691;28;20039;-60
2020/12/31 23:41:29;;;;;;;1999.90;999.90;;;;;;;5.09;67.81;100078.31;15873915;28;20234;-61
2020/12/31 23:49:03;;;;;;;1999.90;999.90;;;;;;;4.75;68.90;100076.84;15873314;28;20035;-61
2020/12/31 23:56:36;;;;;;;;;;;;;;;4.72;69.56;100073.91;15873107;28;20402;-61
